createdAt,value
2022-12-04T00:01:25.771Z,18.77
2022-12-04T00:03:28.671Z,15.68
2022-12-04T00:05:31.704Z,18.63
2022-12-04T00:07:36.206Z,18.67
2022-12-04T00:09:39.092Z,17.67
2022-12-04T00:11:41.899Z,16.63
2022-12-04T00:13:45.414Z,19.50
2022-12-04T00:15:48.232Z,20.02
2022-12-04T00:17:51.238Z,17.05
2022-12-04T00:19:54.366Z,18.23
2022-12-04T00:21:57.442Z,18.15
2022-12-04T00:24:01.624Z,18.05
2022-12-04T00:26:06.510Z,17.35
2022-12-04T00:30:12.894Z,19.23
2022-12-04T00:32:16.007Z,19.67
2022-12-04T00:34:19.526Z,18.90
2022-12-04T00:36:25.268Z,18.38
2022-12-04T00:38:28.669Z,21.27
2022-12-04T00:40:32.976Z,19.08
2022-12-04T00:42:35.923Z,19.08
2022-12-04T00:44:38.767Z,20.20
2022-12-04T00:46:41.544Z,19.05
2022-12-04T00:48:44.891Z,20.70
2022-12-04T00:50:47.697Z,23.55
2022-12-04T00:52:50.493Z,19.42
2022-12-04T00:54:53.582Z,22.10
2022-12-04T00:56:57.672Z,19.55
2022-12-04T00:59:02.183Z,19.98
2022-12-04T01:01:07.256Z,21.15
2022-12-04T01:03:10.607Z,18.30
2022-12-04T01:05:14.113Z,18.77
2022-12-04T01:07:16.946Z,18.92
2022-12-04T01:09:20.043Z,18.90
2022-12-04T01:11:24.683Z,16.92
2022-12-04T01:13:28.866Z,19.70
2022-12-04T01:15:31.681Z,18.95
2022-12-04T01:17:34.501Z,19.55
2022-12-04T01:19:37.301Z,21.05
2022-12-04T01:21:40.523Z,18.02
2022-12-04T01:23:44.057Z,19.98
2022-12-04T01:25:54.743Z,18.58
2022-12-04T01:27:57.785Z,17.98
2022-12-04T01:30:02.039Z,21.52
2022-12-04T01:32:05.435Z,19.27
2022-12-04T01:34:08.285Z,19.63
2022-12-04T01:36:14.211Z,21.42
2022-12-04T01:38:17.036Z,21.50
2022-12-04T01:40:19.822Z,18.30
2022-12-04T01:42:22.629Z,18.63
2022-12-04T01:44:27.407Z,21.75
2022-12-04T01:46:31.593Z,21.05
2022-12-04T01:48:35.801Z,20.75
2022-12-04T01:50:38.952Z,18.20
2022-12-04T01:52:41.903Z,19.38
2022-12-04T01:54:48.602Z,22.42
2022-12-04T01:56:56.138Z,21.95
2022-12-04T01:59:02.657Z,22.55
2022-12-04T02:01:09.102Z,21.58
2022-12-04T02:03:14.683Z,21.75
2022-12-04T02:05:21.127Z,19.13
2022-12-04T02:07:24.104Z,17.98
2022-12-04T02:09:27.618Z,18.75
2022-12-04T02:11:39.549Z,20.40
2022-12-04T02:13:55.466Z,21.60
2022-12-04T02:16:06.621Z,22.23
2022-12-04T02:18:19.788Z,19.38
2022-12-04T02:20:32.216Z,21.77
2022-12-04T02:22:55.011Z,22.92
2022-12-04T02:25:06.773Z,20.00
2022-12-04T02:27:19.039Z,19.60
2022-12-04T02:29:35.752Z,19.33
2022-12-04T02:31:44.711Z,21.98
2022-12-04T02:33:52.116Z,26.25
2022-12-04T02:36:04.055Z,24.67
2022-12-04T02:38:13.203Z,24.50
2022-12-04T02:40:22.079Z,22.75
2022-12-04T02:42:33.929Z,24.40
2022-12-04T02:44:43.218Z,24.50
2022-12-04T02:46:49.910Z,27.75
2022-12-04T02:48:56.966Z,27.70
2022-12-04T02:51:03.651Z,27.75
2022-12-04T02:53:09.938Z,24.48
2022-12-04T02:55:18.744Z,23.52
2022-12-04T02:57:26.063Z,23.65
2022-12-04T02:59:34.704Z,23.63
2022-12-04T03:01:43.175Z,22.08
2022-12-04T03:03:50.774Z,23.95
2022-12-04T03:05:59.686Z,24.20
2022-12-04T03:08:09.532Z,23.05
2022-12-04T03:10:16.349Z,25.58
2022-12-04T03:12:22.915Z,26.77
2022-12-04T03:14:29.964Z,26.02
2022-12-04T03:16:38.480Z,24.70
2022-12-04T03:18:45.498Z,23.58
2022-12-04T03:20:52.511Z,25.98
2022-12-04T03:23:00.531Z,24.48
2022-12-04T03:25:05.760Z,25.85
2022-12-04T03:27:15.667Z,24.65
2022-12-04T03:29:22.459Z,24.55
2022-12-04T03:31:32.672Z,23.40
2022-12-04T03:33:43.641Z,23.52
2022-12-04T03:35:53.295Z,23.55
2022-12-04T03:38:04.719Z,24.83
2022-12-04T03:40:18.399Z,23.55
2022-12-04T03:42:26.315Z,24.73
2022-12-04T03:44:37.412Z,24.35
2022-12-04T03:46:46.786Z,21.60
2022-12-04T03:48:56.478Z,24.92
2022-12-04T03:51:04.780Z,24.25
2022-12-04T03:53:13.184Z,22.52
2022-12-04T03:55:24.514Z,23.67
2022-12-04T03:57:32.280Z,24.38
2022-12-04T03:59:39.207Z,24.10
2022-12-04T04:01:48.539Z,20.08
2022-12-04T04:03:56.053Z,23.25
2022-12-04T04:06:03.030Z,21.70
2022-12-04T04:08:28.124Z,25.83
2022-12-04T04:10:31.052Z,23.30
2022-12-04T04:12:39.731Z,21.67
2022-12-04T04:15:06.384Z,25.80
2022-12-04T04:17:32.274Z,23.13
2022-12-04T04:19:59.660Z,20.73
2022-12-04T04:22:25.842Z,22.90
2022-12-04T04:24:33.586Z,24.33
2022-12-04T04:26:40.602Z,24.80
2022-12-04T04:28:43.944Z,23.20
2022-12-04T04:30:46.764Z,22.98
2022-12-04T04:32:58.393Z,26.33
2022-12-04T04:35:10.218Z,24.52
2022-12-04T04:37:23.396Z,25.25
2022-12-04T04:39:32.873Z,23.23
2022-12-04T04:41:45.321Z,21.45
2022-12-04T04:43:54.644Z,23.00
2022-12-04T04:46:02.422Z,22.88
2022-12-04T04:48:10.278Z,28.27
2022-12-04T04:50:17.275Z,22.63
2022-12-04T04:52:23.319Z,21.95
2022-12-04T04:54:26.984Z,23.05
2022-12-04T04:56:29.894Z,21.80
2022-12-04T04:58:32.784Z,20.70
2022-12-04T05:00:36.141Z,21.35
2022-12-04T05:02:39.168Z,20.42
2022-12-04T05:04:41.963Z,20.63
2022-12-04T05:06:46.106Z,22.10
2022-12-04T05:08:49.277Z,20.52
2022-12-04T05:10:52.182Z,22.08
2022-12-04T05:12:54.967Z,18.73
2022-12-04T05:14:57.786Z,20.98
2022-12-04T05:17:02.072Z,21.92
2022-12-04T05:19:23.121Z,17.48
2022-12-04T05:21:26.000Z,20.90
2022-12-04T05:23:30.248Z,19.88
2022-12-04T05:25:33.048Z,21.05
2022-12-04T05:27:35.837Z,21.63
2022-12-04T05:29:38.899Z,19.65
2022-12-04T05:31:41.782Z,18.70
2022-12-04T05:33:44.572Z,17.65
2022-12-04T05:35:57.411Z,22.67
2022-12-04T05:38:00.191Z,19.52
2022-12-04T05:40:05.481Z,18.92
2022-12-04T05:42:08.351Z,21.50
2022-12-04T05:44:11.203Z,19.92
2022-12-04T05:46:14.093Z,19.48
2022-12-04T05:48:16.868Z,18.03
2022-12-04T05:50:19.766Z,19.48
2022-12-04T05:52:23.718Z,19.48
2022-12-04T05:54:26.724Z,17.92
2022-12-04T05:56:30.883Z,19.38
2022-12-04T05:58:35.817Z,19.05
2022-12-04T06:00:38.593Z,19.67
2022-12-04T06:02:41.473Z,17.85
2022-12-04T06:04:44.375Z,17.48
2022-12-04T06:06:47.244Z,17.95
2022-12-04T06:08:51.134Z,20.15
2022-12-04T06:10:53.970Z,16.55
2022-12-04T06:12:58.195Z,18.15
2022-12-04T06:15:01.062Z,17.15
2022-12-04T06:17:04.814Z,18.48
2022-12-04T06:19:09.470Z,17.98
2022-12-04T06:21:12.518Z,19.88
2022-12-04T06:23:15.314Z,18.63
2022-12-04T06:25:20.635Z,19.08
2022-12-04T06:27:27.923Z,21.17
2022-12-04T06:29:33.235Z,16.95
2022-12-04T06:31:38.073Z,18.70
2022-12-04T06:35:43.971Z,17.58
2022-12-04T06:37:46.822Z,16.75
2022-12-04T06:39:49.781Z,16.88
2022-12-04T06:41:52.831Z,16.17
2022-12-04T06:43:56.497Z,13.60
2022-12-04T06:46:05.875Z,15.13
2022-12-04T06:48:08.703Z,19.27
2022-12-04T06:50:12.053Z,14.45
2022-12-04T06:52:14.852Z,18.63
2022-12-04T06:54:17.677Z,14.45
2022-12-04T06:56:23.645Z,14.48
2022-12-04T06:58:26.695Z,15.27
2022-12-04T07:00:29.635Z,20.10
2022-12-04T07:02:33.836Z,18.13
2022-12-04T07:04:36.705Z,20.33
2022-12-04T07:06:40.276Z,16.20
2022-12-04T07:08:43.605Z,16.58
2022-12-04T07:10:46.400Z,18.88
2022-12-04T07:12:49.202Z,17.17
2022-12-04T07:14:52.004Z,15.27
2022-12-04T07:16:54.937Z,15.88
2022-12-04T07:18:59.235Z,17.58
2022-12-04T07:21:06.008Z,15.50
2022-12-04T07:23:08.770Z,16.17
2022-12-04T07:25:12.954Z,16.50
2022-12-04T07:27:15.775Z,17.13
2022-12-04T07:29:18.657Z,18.55
2022-12-04T07:31:23.782Z,19.00
2022-12-04T07:33:26.721Z,18.52
2022-12-04T07:35:30.942Z,21.75
2022-12-04T07:37:36.790Z,17.13
2022-12-04T07:39:39.587Z,18.50
2022-12-04T07:41:42.450Z,22.17
2022-12-04T07:43:45.675Z,18.85
2022-12-04T07:45:48.495Z,15.40
2022-12-04T07:47:51.333Z,18.73
2022-12-04T07:49:54.564Z,18.88
2022-12-04T07:51:58.938Z,14.50
2022-12-04T07:54:03.952Z,16.33
2022-12-04T07:56:08.196Z,14.77
2022-12-04T07:58:11.052Z,19.48
2022-12-04T08:00:15.890Z,16.65
2022-12-04T08:02:18.623Z,14.68
2022-12-04T08:04:21.396Z,14.32
2022-12-04T08:06:26.051Z,16.10
2022-12-04T08:08:30.261Z,14.68
2022-12-04T08:10:33.070Z,15.30
2022-12-04T08:12:35.973Z,15.82
2022-12-04T08:14:38.897Z,16.25
2022-12-04T08:16:41.719Z,14.43
2022-12-04T08:18:48.701Z,15.55
2022-12-04T08:20:51.683Z,15.38
2022-12-04T08:22:54.456Z,15.55
2022-12-04T08:24:58.599Z,16.50
2022-12-04T08:29:06.578Z,17.67
2022-12-04T08:31:12.707Z,13.35
2022-12-04T08:33:15.624Z,14.68
2022-12-04T08:35:18.366Z,13.82
2022-12-04T08:37:21.236Z,14.10
2022-12-04T08:39:24.172Z,15.20
2022-12-04T08:41:28.740Z,15.98
2022-12-04T08:45:34.812Z,15.57
2022-12-04T08:47:37.568Z,16.90
2022-12-04T08:49:41.259Z,15.82
2022-12-04T08:51:44.048Z,16.50
2022-12-04T08:53:47.037Z,21.58
2022-12-04T08:55:50.214Z,18.17
2022-12-04T08:57:54.780Z,15.90
2022-12-04T08:59:57.921Z,16.33
2022-12-04T09:02:01.070Z,16.30
2022-12-04T09:04:04.004Z,14.40
2022-12-04T09:06:08.344Z,17.27
2022-12-04T09:08:11.303Z,16.27
2022-12-04T09:10:14.260Z,16.63
2022-12-04T09:12:17.142Z,15.65
2022-12-04T09:14:25.629Z,17.25
2022-12-04T09:16:28.563Z,16.42
2022-12-04T09:18:31.779Z,18.15
2022-12-04T09:20:34.666Z,16.65
2022-12-04T09:23:02.303Z,17.35
2022-12-04T09:25:01.528Z,15.80
2022-12-04T09:27:05.328Z,17.27
2022-12-04T09:29:12.372Z,17.55
2022-12-04T09:31:18.555Z,19.20
2022-12-04T09:33:21.410Z,16.27
2022-12-04T09:35:24.260Z,17.25
2022-12-04T09:37:27.159Z,17.80
2022-12-04T09:39:30.028Z,15.73
2022-12-04T09:42:04.679Z,16.63
2022-12-04T09:44:15.339Z,17.05
2022-12-04T09:46:37.694Z,15.85
2022-12-04T09:48:43.992Z,18.90
2022-12-04T09:50:48.935Z,20.08
2022-12-04T09:55:01.495Z,18.15
2022-12-04T09:57:16.303Z,16.42
2022-12-04T09:59:22.896Z,16.90
2022-12-04T10:01:32.268Z,21.13
2022-12-04T10:03:35.279Z,19.05
2022-12-04T10:05:46.398Z,17.50
2022-12-04T10:08:00.537Z,17.35
2022-12-04T10:10:08.169Z,16.70
2022-12-04T10:12:22.986Z,18.42
2022-12-04T10:14:45.800Z,17.63
2022-12-04T10:17:08.701Z,18.95
2022-12-04T10:19:22.422Z,17.02
2022-12-04T10:21:35.160Z,16.67
2022-12-04T10:23:49.103Z,18.52
2022-12-04T10:25:56.142Z,21.42
2022-12-04T10:28:03.696Z,22.70
2022-12-04T10:30:17.792Z,22.27
2022-12-04T10:32:25.101Z,24.48
2022-12-04T10:34:30.020Z,28.58
2022-12-04T10:38:43.164Z,27.27
2022-12-04T10:40:49.330Z,23.98
2022-12-04T10:42:56.470Z,26.63
2022-12-04T10:44:59.402Z,28.83
2022-12-04T10:47:06.128Z,25.55
2022-12-04T10:49:18.414Z,23.52
2022-12-04T10:51:22.875Z,24.48
2022-12-04T10:53:31.467Z,25.30
2022-12-04T10:55:38.163Z,24.15
2022-12-04T10:57:43.736Z,24.15
2022-12-04T10:59:52.336Z,24.77
2022-12-04T11:02:06.325Z,27.58
2022-12-04T11:04:21.607Z,23.27
2022-12-04T11:06:25.778Z,24.52
2022-12-04T11:08:34.850Z,29.48
2022-12-04T11:10:40.483Z,26.67
2022-12-04T11:12:54.099Z,27.65
2022-12-04T11:15:12.915Z,28.88
2022-12-04T11:17:19.023Z,25.27
2022-12-04T11:19:25.779Z,27.02
2022-12-04T11:21:30.740Z,26.65
2022-12-04T11:25:46.089Z,26.83
2022-12-04T11:27:51.552Z,26.95
2022-12-04T11:29:55.371Z,22.67
2022-12-04T11:32:02.767Z,29.13
2022-12-04T11:34:15.481Z,25.33
2022-12-04T11:36:24.570Z,29.88
2022-12-04T11:38:29.984Z,28.02
2022-12-04T11:40:32.886Z,27.52
2022-12-04T11:42:38.045Z,29.77
2022-12-04T11:44:51.638Z,29.30
2022-12-04T11:46:58.621Z,25.70
2022-12-04T11:49:03.283Z,28.27
2022-12-04T11:51:13.939Z,27.50
2022-12-04T11:53:25.259Z,26.85
2022-12-04T11:55:39.853Z,26.60
2022-12-04T11:57:49.269Z,29.42
2022-12-04T12:00:05.701Z,26.67
2022-12-04T12:02:36.191Z,25.52
2022-12-04T12:05:09.335Z,28.33
2022-12-04T12:07:27.183Z,27.63
2022-12-04T12:09:39.013Z,27.20
2022-12-04T12:11:49.242Z,29.40
2022-12-04T12:13:59.578Z,25.60
2022-12-04T12:16:13.396Z,27.70
2022-12-04T12:18:39.808Z,26.20
2022-12-04T12:20:49.851Z,29.77
2022-12-04T12:23:09.392Z,26.25
2022-12-04T12:25:20.562Z,26.85
2022-12-04T12:27:44.004Z,33.97
2022-12-04T12:30:02.743Z,31.95
2022-12-04T12:32:14.922Z,27.88
2022-12-04T12:34:32.494Z,27.13
2022-12-04T12:36:43.849Z,35.17
2022-12-04T12:38:51.293Z,30.85
2022-12-04T12:41:02.527Z,34.85
2022-12-04T12:43:08.579Z,26.83
2022-12-04T12:45:25.762Z,27.30
2022-12-04T12:47:35.951Z,27.85
2022-12-04T12:49:42.654Z,27.52
2022-12-04T12:51:50.848Z,29.75
2022-12-04T12:53:56.786Z,29.70
2022-12-04T12:56:03.424Z,29.08
2022-12-04T12:58:13.572Z,36.10
2022-12-04T13:00:18.227Z,34.22
2022-12-04T13:02:28.453Z,26.73
2022-12-04T13:04:36.304Z,28.20
2022-12-04T13:06:41.335Z,31.42
2022-12-04T13:11:03.346Z,35.40
2022-12-04T13:13:09.690Z,33.17
2022-12-04T13:15:16.036Z,37.05
2022-12-04T13:17:24.961Z,43.10
2022-12-04T13:19:32.540Z,38.33
2022-12-04T13:21:38.590Z,33.72
2022-12-04T13:23:56.041Z,31.60
2022-12-04T13:26:08.500Z,35.83
2022-12-04T13:28:24.464Z,39.40
2022-12-04T13:30:33.501Z,38.40
2022-12-04T13:33:07.923Z,34.38
2022-12-04T13:35:20.880Z,34.55
2022-12-04T13:37:49.395Z,36.05
2022-12-04T13:40:28.266Z,39.53
2022-12-04T13:42:33.049Z,36.38
2022-12-04T13:44:36.613Z,31.30
2022-12-04T13:46:42.797Z,35.97
2022-12-04T13:48:45.832Z,33.13
2022-12-04T13:50:48.668Z,37.88
2022-12-04T13:52:53.429Z,34.40
2022-12-04T13:55:00.170Z,35.42
2022-12-04T13:57:20.955Z,32.25
2022-12-04T13:59:36.547Z,36.22
2022-12-04T14:01:42.037Z,33.83
2022-12-04T14:03:49.070Z,30.15
2022-12-04T14:05:52.451Z,33.03
2022-12-04T14:08:07.993Z,37.17
2022-12-04T14:10:28.528Z,36.67
2022-12-04T14:12:36.373Z,35.97
2022-12-04T14:14:45.411Z,37.10
2022-12-04T14:16:50.236Z,43.60
2022-12-04T14:18:56.125Z,37.40
2022-12-04T14:21:01.034Z,40.78
2022-12-04T14:25:34.589Z,38.17
2022-12-04T14:27:45.039Z,40.22
2022-12-04T14:29:55.639Z,40.28
2022-12-04T14:32:01.881Z,34.88
2022-12-04T14:34:21.170Z,37.58
2022-12-04T14:36:26.282Z,43.20
2022-12-04T14:38:29.560Z,35.90
2022-12-04T14:40:38.285Z,38.33
2022-12-04T14:42:42.594Z,42.45
2022-12-04T14:44:47.549Z,38.70
2022-12-04T14:46:55.065Z,35.83
2022-12-04T14:49:08.116Z,40.85
2022-12-04T14:51:18.624Z,35.13
2022-12-04T14:53:35.006Z,38.53
2022-12-04T14:55:47.739Z,37.58
2022-12-04T14:57:55.793Z,42.65
2022-12-04T15:00:00.502Z,34.90
2022-12-04T15:02:05.616Z,37.72
2022-12-04T15:04:14.259Z,38.75
2022-12-04T15:06:22.864Z,38.88
2022-12-04T15:08:25.650Z,35.00
2022-12-04T15:11:02.902Z,38.33
2022-12-04T15:13:05.819Z,37.90
2022-12-04T15:15:19.369Z,40.58
2022-12-04T15:17:23.551Z,37.80
2022-12-04T15:19:26.382Z,36.55
2022-12-04T15:21:38.020Z,36.33
2022-12-04T15:23:42.351Z,35.65
2022-12-04T15:25:47.628Z,35.20
2022-12-04T15:27:54.192Z,37.65
2022-12-04T15:29:58.517Z,41.90
2022-12-04T15:32:04.598Z,38.58
2022-12-04T15:34:14.514Z,37.05
2022-12-04T15:36:20.956Z,36.55
2022-12-04T15:38:24.139Z,37.67
2022-12-04T15:40:30.189Z,35.60
2022-12-04T15:42:33.010Z,34.40
2022-12-04T15:44:36.439Z,41.60
2022-12-04T15:46:39.286Z,39.97
2022-12-04T15:48:47.807Z,38.45
2022-12-04T15:50:59.069Z,39.05
2022-12-04T15:53:08.502Z,39.28
2022-12-04T15:55:18.178Z,37.95
2022-12-04T15:57:27.596Z,36.30
2022-12-04T15:59:31.614Z,38.35
2022-12-04T16:01:40.352Z,47.07
2022-12-04T16:03:48.442Z,41.92
2022-12-04T16:06:02.275Z,38.30
2022-12-04T16:08:33.899Z,36.15
2022-12-04T16:10:37.166Z,37.53
2022-12-04T16:12:40.138Z,41.75
2022-12-04T16:14:42.922Z,39.65
2022-12-04T16:16:48.134Z,34.90
2022-12-04T16:18:51.216Z,32.58
2022-12-04T16:20:54.393Z,36.70
2022-12-04T16:22:57.175Z,36.80
2022-12-04T16:25:01.319Z,36.70
2022-12-04T16:27:10.940Z,39.17
2022-12-04T16:29:13.741Z,43.38
2022-12-04T16:31:20.264Z,37.30
2022-12-04T16:33:23.112Z,45.15
2022-12-04T16:35:26.048Z,41.53
2022-12-04T16:37:31.608Z,43.63
2022-12-04T16:39:38.318Z,47.88
2022-12-04T16:41:45.364Z,43.20
2022-12-04T16:43:55.584Z,36.90
2022-12-04T16:46:01.046Z,40.13
2022-12-04T16:48:04.096Z,42.72
2022-12-04T16:50:08.635Z,34.80
2022-12-04T16:52:12.173Z,43.05
2022-12-04T16:54:14.945Z,35.95
2022-12-04T16:56:20.756Z,38.72
2022-12-04T16:58:25.212Z,38.22
2022-12-04T17:00:28.417Z,35.67
2022-12-04T17:02:31.496Z,43.22
2022-12-04T17:04:34.414Z,35.55
2022-12-04T17:06:37.508Z,36.58
2022-12-04T17:08:40.317Z,41.17
2022-12-04T17:10:43.101Z,35.60
2022-12-04T17:12:46.076Z,35.03
2022-12-04T17:14:50.189Z,39.83
2022-12-04T17:16:54.855Z,36.30
2022-12-04T17:18:57.814Z,38.03
2022-12-04T17:21:00.722Z,40.58
2022-12-04T17:23:03.510Z,38.70
2022-12-04T17:25:07.294Z,44.05
2022-12-04T17:27:12.834Z,39.78
2022-12-04T17:29:15.660Z,36.90
2022-12-04T17:31:21.598Z,40.30
2022-12-04T17:33:24.577Z,34.13
2022-12-04T17:35:27.426Z,39.13
2022-12-04T17:37:30.433Z,37.22
2022-12-04T17:39:33.216Z,40.47
2022-12-04T17:41:36.115Z,39.53
2022-12-04T17:43:38.954Z,34.90
2022-12-04T17:45:41.985Z,36.42
2022-12-04T17:47:46.050Z,41.22
2022-12-04T17:49:48.823Z,37.08
2022-12-04T17:51:51.710Z,37.70
2022-12-04T17:53:54.803Z,37.90
2022-12-04T17:55:57.580Z,36.83
2022-12-04T17:58:00.392Z,39.00
2022-12-04T18:00:03.221Z,36.05
2022-12-04T18:02:15.733Z,36.15
2022-12-04T18:04:20.829Z,34.70
2022-12-04T18:06:25.155Z,40.33
2022-12-04T18:08:30.457Z,39.22
2022-12-04T18:10:35.271Z,39.10
2022-12-04T18:12:38.074Z,43.20
2022-12-04T18:14:41.169Z,43.50
2022-12-04T18:16:46.177Z,40.65
2022-12-04T18:18:50.675Z,40.72
2022-12-04T18:21:02.136Z,39.88
2022-12-04T18:23:05.119Z,42.58
2022-12-04T18:25:09.047Z,40.25
2022-12-04T18:27:11.899Z,33.28
2022-12-04T18:29:17.636Z,43.65
2022-12-04T18:31:20.850Z,38.55
2022-12-04T18:33:24.773Z,42.83
2022-12-04T18:35:27.644Z,38.88
2022-12-04T18:37:33.981Z,42.00
2022-12-04T18:39:37.973Z,36.67
2022-12-04T18:41:44.328Z,39.03
2022-12-04T18:43:47.136Z,38.28
2022-12-04T18:46:04.039Z,37.35
2022-12-04T18:48:09.887Z,32.70
2022-12-04T18:50:13.246Z,41.40
2022-12-04T18:52:16.229Z,37.70
2022-12-04T18:54:22.280Z,38.47
2022-12-04T18:56:25.136Z,42.03
2022-12-04T18:58:27.947Z,40.72
2022-12-04T19:00:30.785Z,36.55
2022-12-04T19:02:33.672Z,37.67
2022-12-04T19:04:36.456Z,37.15
2022-12-04T19:06:41.249Z,33.92
2022-12-04T19:08:44.053Z,32.47
2022-12-04T19:10:48.169Z,34.75
2022-12-04T19:12:52.544Z,31.27
2022-12-04T19:14:55.380Z,36.10
2022-12-04T19:16:58.285Z,35.10
2022-12-04T19:19:01.212Z,37.33
2022-12-04T19:21:05.824Z,36.03
2022-12-04T19:23:09.209Z,35.00
2022-12-04T19:25:12.020Z,32.60
2022-12-04T19:27:16.219Z,34.65
2022-12-04T19:29:19.001Z,35.08
2022-12-04T19:31:23.995Z,36.55
2022-12-04T19:33:26.871Z,34.10
2022-12-04T19:35:29.689Z,34.70
2022-12-04T19:37:32.489Z,34.80
2022-12-04T19:39:35.517Z,35.58
2022-12-04T19:41:40.688Z,33.65
2022-12-04T19:43:47.040Z,37.97
2022-12-04T19:45:50.027Z,33.20
2022-12-04T19:47:52.850Z,28.20
2022-12-04T19:49:56.107Z,36.38
2022-12-04T19:51:59.477Z,35.63
2022-12-04T19:54:02.329Z,35.40
2022-12-04T19:56:06.574Z,33.60
2022-12-04T19:58:09.284Z,28.60
2022-12-04T20:00:14.425Z,36.08
2022-12-04T20:02:17.323Z,32.35
2022-12-04T20:04:20.160Z,28.65
2022-12-04T20:06:24.958Z,35.03
2022-12-04T20:08:27.723Z,32.38
2022-12-04T20:10:30.675Z,33.40
2022-12-04T20:12:33.459Z,33.42
2022-12-04T20:14:36.334Z,33.13
2022-12-04T20:16:41.210Z,34.92
2022-12-04T20:20:55.517Z,30.85
2022-12-04T20:22:58.762Z,34.72
2022-12-04T20:25:01.584Z,33.95
2022-12-04T20:27:04.463Z,32.35
2022-12-04T20:29:10.703Z,33.90
2022-12-04T20:31:15.868Z,31.23
2022-12-04T20:33:20.060Z,33.45
2022-12-04T20:35:22.912Z,35.00
2022-12-04T20:37:25.883Z,29.67
2022-12-04T20:39:29.623Z,31.38
2022-12-04T20:41:33.423Z,32.78
2022-12-04T20:43:36.590Z,30.38
2022-12-04T20:45:39.646Z,34.90
2022-12-04T20:47:42.452Z,29.17
2022-12-04T20:49:47.781Z,34.07
2022-12-04T20:51:52.344Z,31.60
2022-12-04T20:53:58.011Z,32.80
2022-12-04T20:56:02.795Z,32.15
2022-12-04T20:58:06.491Z,29.88
2022-12-04T21:00:10.290Z,35.53
2022-12-04T21:02:13.702Z,33.60
2022-12-04T21:04:17.839Z,33.55
2022-12-04T21:06:25.602Z,33.78
2022-12-04T21:08:47.710Z,34.58
2022-12-04T21:10:51.674Z,31.20
2022-12-04T21:13:12.207Z,32.72
2022-12-04T21:15:32.769Z,34.42
2022-12-04T21:17:35.597Z,34.08
2022-12-04T21:19:38.819Z,31.63
2022-12-04T21:21:43.069Z,36.22
2022-12-04T21:23:45.904Z,33.17
2022-12-04T21:25:48.658Z,35.13
2022-12-04T21:27:51.498Z,34.72
2022-12-04T21:29:55.941Z,37.03
2022-12-04T21:31:58.982Z,38.28
2022-12-04T21:34:03.554Z,40.10
2022-12-04T21:36:13.453Z,41.33
2022-12-04T21:38:17.570Z,41.05
2022-12-04T21:40:20.366Z,38.20
2022-12-04T21:42:31.017Z,37.78
2022-12-04T21:44:33.811Z,38.03
2022-12-04T21:46:38.121Z,35.93
2022-12-04T21:48:40.948Z,36.75
2022-12-04T21:50:43.692Z,40.50
2022-12-04T21:52:46.451Z,36.90
2022-12-04T21:54:51.863Z,38.50
2022-12-04T21:56:54.960Z,36.38
2022-12-04T21:58:58.206Z,42.42
2022-12-04T22:01:01.032Z,42.33
2022-12-04T22:03:05.482Z,43.65
2022-12-04T22:05:09.081Z,36.70
2022-12-04T22:07:12.374Z,38.85
2022-12-04T22:09:15.310Z,39.35
2022-12-04T22:11:20.322Z,42.40
2022-12-04T22:15:25.772Z,38.60
2022-12-04T22:17:30.455Z,39.95
2022-12-04T22:19:34.098Z,45.63
2022-12-04T22:21:37.009Z,43.78
2022-12-04T22:23:40.217Z,39.95
2022-12-04T22:25:43.031Z,43.70
2022-12-04T22:27:47.174Z,44.45
2022-12-04T22:29:51.232Z,43.40
2022-12-04T22:31:54.374Z,43.60
2022-12-04T22:33:59.244Z,44.75
2022-12-04T22:36:03.879Z,40.67
2022-12-04T22:38:06.775Z,41.85
2022-12-04T22:40:10.696Z,46.30
2022-12-04T22:42:13.547Z,42.28
2022-12-04T22:44:17.718Z,42.33
2022-12-04T22:46:20.635Z,42.00
2022-12-04T22:48:23.695Z,44.38
2022-12-04T22:50:26.502Z,38.47
2022-12-04T22:52:30.783Z,40.40
2022-12-04T22:54:33.759Z,42.42
2022-12-04T22:56:36.541Z,40.35
2022-12-04T22:58:39.630Z,35.42
2022-12-04T23:00:43.868Z,41.53
2022-12-04T23:02:46.854Z,40.20
2022-12-04T23:04:49.782Z,39.90
2022-12-04T23:06:52.812Z,41.13
2022-12-04T23:08:56.677Z,44.45
2022-12-04T23:11:04.281Z,34.22
2022-12-04T23:13:07.084Z,41.05
2022-12-04T23:15:10.603Z,33.35
2022-12-04T23:17:14.795Z,38.38
2022-12-04T23:19:19.822Z,46.25
2022-12-04T23:21:24.619Z,41.60
2022-12-04T23:23:27.363Z,40.15
2022-12-04T23:25:30.182Z,46.85
2022-12-04T23:27:33.185Z,39.08
2022-12-04T23:29:52.629Z,42.25
2022-12-04T23:31:56.251Z,43.95
2022-12-04T23:34:00.929Z,38.33
2022-12-04T23:36:05.134Z,45.35
2022-12-04T23:38:07.892Z,38.78
2022-12-04T23:40:11.419Z,39.55
2022-12-04T23:42:15.392Z,43.63
2022-12-04T23:44:18.233Z,37.45
2022-12-04T23:46:23.070Z,45.25
2022-12-04T23:48:26.734Z,37.80
2022-12-04T23:50:30.820Z,46.83
2022-12-04T23:52:33.631Z,43.92
2022-12-04T23:54:37.666Z,38.10
2022-12-04T23:56:40.567Z,42.60
2022-12-04T23:58:44.583Z,42.47
